Wilson Gdynia — 8PSA — position and weather

sailwx.info

Track history (hours):
 
Tides and Currents Weather Stations Pressure Air Temp Water Temp Dewpoint Dewpoint Depression Visibility Wind Speed Wind Dir Waves Ship Positions

Wilson Gdynia

Last reported at 2016-Aug-29 03:32 UTC. Time now 2016-Aug-29 03:44 UTC.
Position N 51°17' E 004°21'.

Length 88 m; draft 5.7 m.

Type: Cargo ship. MMSI: 314192000.

Date/timePositionNaut miles runAvg speedWind from/ knotsBaromVisibWave heightAir tempDewpointWater temp
2016-Aug-29 03:32N 51°17' E 004°21'0 0.0
2016-Aug-29 02:32N 51°16' E 004°21'0 0.0
2016-Aug-29 01:29N 51°16' E 004°21'0 0.0
2016-Aug-29 00:32N 51°16' E 004°21'0 0.0
2016-Aug-28 23:32N 51°17' E 004°21'0 0.0
2016-Aug-28 22:32N 51°17' E 004°21'0 0.0
2016-Aug-28 21:32N 51°17' E 004°21'0 0.0
2016-Aug-28 20:32N 51°16' E 004°21'0 0.0
2016-Aug-28 19:32N 51°17' E 004°21'0 0.0
2016-Aug-28 18:29N 51°17' E 004°21'0 0.0
2016-Aug-28 17:32N 51°17' E 004°21'0 0.0
2016-Aug-28 16:29N 51°16' E 004°21'0 0.0
2016-Aug-28 15:32N 51°17' E 004°21'0 0.0
2016-Aug-28 14:26N 51°17' E 004°21'0 0.0
2016-Aug-28 13:32N 51°16' E 004°21'0 0.0
2016-Aug-28 12:32N 51°16' E 004°21'0 0.0
2016-Aug-28 11:23N 51°16' E 004°21'0 0.0
2016-Aug-28 10:32N 51°16' E 004°21'0 0.0
2016-Aug-28 09:32N 51°16' E 004°21'0 0.0
2016-Aug-28 08:32N 51°16' E 004°21'0 0.0
2016-Aug-28 07:32N 51°17' E 004°21'0 0.0
2016-Aug-28 06:32N 51°16' E 004°21'0 0.0
2016-Aug-28 05:32N 51°17' E 004°21'0 0.0
2016-Aug-28 04:32N 51°17' E 004°21'0 0.0
2016-Aug-28 03:29N 51°17' E 004°21'0 0.0
2016-Aug-28 02:32N 51°17' E 004°21'0 0.0
2016-Aug-28 01:32N 51°17' E 004°21'0 0.0
2016-Aug-28 00:32N 51°16' E 004°21'0 0.0
2016-Aug-27 23:32N 51°17' E 004°21'0 0.0
2016-Aug-27 22:32N 51°16' E 004°21'5 5.0
2016-Aug-27 21:33N 51°21' E 004°17'0 0.3
2016-Aug-27 20:33N 51°21' E 004°17'5 5.2
2016-Aug-27 19:34N 51°23' E 004°09'8 7.5
2016-Aug-27 18:34N 51°23' E 003°57'10 9.6
2016-Aug-27 17:34N 51°24' E 003°42'1010.5
2016-Aug-27 16:34N 51°24' E 003°25'10 9.6
2016-Aug-27 15:34N 51°23' E 003°10'9 8.7
2016-Aug-27 14:34N 51°22' E 002°56'9 8.6
2016-Aug-27 13:34N 51°22' E 002°42'6 6.4
2016-Aug-27 12:34N 51°22' E 002°32'7 7.3
2016-Aug-27 11:33N 51°19' E 002°21'8 8.4
2016-Aug-27 10:34N 51°15' E 002°10'9 8.8
2016-Aug-27 09:33N 51°10' E 001°58'10 9.6
2016-Aug-27 08:34N 51°05' E 001°45'1211.8
2016-Aug-27 07:33N 50°56' E 001°32'1211.8
2016-Aug-27 06:32N 50°45' E 001°24'3210.6
2016-Aug-27 03:32N 50°22' E 000°49'1110.9
2016-Aug-27 02:33N 50°13' E 000°40'1110.6
2016-Aug-27 01:34N 50°05' E 000°29'1010.1
2016-Aug-27 00:34N 49°58' E 000°19'10 9.6
2016-Aug-26 23:34N 49°50' E 000°09'9 9.1
2016-Aug-26 22:34N 49°43' E 000°02'9 9.2
2016-Aug-26 21:33N 49°34' W 000°04'8 7.7
2016-Aug-26 20:33N 49°27' E 000°01'1111.3
2016-Aug-26 19:34N 49°26' E 000°18'9 9.4
2016-Aug-26 18:34N 49°28' E 000°33'9 6.0
2016-Aug-26 17:06N 49°31' E 000°45'4 7.1
2016-Aug-26 16:31N 49°28' E 000°49'5 0.4
2016-Aug-26 03:33N 49°28' E 000°56'5 4.1
2016-Aug-26 02:27N 49°27' E 000°49'6 6.7
2016-Aug-26 01:34N 49°28' E 000°40'8 8.4
2016-Aug-26 00:34N 49°28' E 000°27'1211.7
2016-Aug-25 23:34N 49°26' E 000°09'10 9.6
2016-Aug-25 22:34N 49°28' W 000°05'0 0.0
2016-Aug-25 21:32N 49°28' W 000°05'0 0.0
2016-Aug-25 20:32N 49°28' W 000°05'0 0.0
2016-Aug-25 19:32N 49°28' W 000°05'0 0.0
2016-Aug-25 18:32N 49°28' W 000°05'0 0.0
2016-Aug-25 17:32N 49°28' W 000°05'7 6.9
2016-Aug-25 16:33N 49°35' W 000°06'1010.2
2016-Aug-25 15:33N 49°45' W 000°02'10 9.7
2016-Aug-25 14:33N 49°54' W 000°01'10 9.6
2016-Aug-25 13:33N 50°04' W 000°01'1010.0
2016-Aug-25 12:33N 50°14' W 000°03'1111.1
2016-Aug-25 11:34N 50°25' W 000°02'10 9.9
2016-Aug-25 10:33N 50°30' E 000°12'1312.8
2016-Aug-25 09:30N 50°33' E 000°32'1312.8
2016-Aug-25 08:29N 50°40' E 000°50'1212.3
2016-Aug-25 07:29N 50°47' E 001°06'1011.2
2016-Aug-25 06:33N 50°54' E 001°18'19 9.4
2016-Aug-25 04:33N 51°08' E 001°38'9 9.5
2016-Aug-25 03:34N 51°15' E 001°48'1111.3
2016-Aug-25 02:34N 51°25' E 001°57'1313.0
2016-Aug-25 01:33N 51°34' E 002°11'1313.5
2016-Aug-25 00:34N 51°44' E 002°26'1413.3
2016-Aug-24 23:29N 51°55' E 002°41'1111.8
2016-Aug-24 22:32N 52°02' E 002°56'1211.7
2016-Aug-24 21:32N 52°02' E 003°15'1211.5
2016-Aug-24 20:30N 52°03' E 003°34'1011.0
2016-Aug-24 19:33N 52°03' E 003°51'10 9.5
2016-Aug-24 18:33N 51°59' E 004°05'10 9.6
2016-Aug-24 17:33N 51°54' E 004°18'2 2.0
2016-Aug-24 16:32N 51°54' E 004°21'0 0.0
2016-Aug-24 15:32N 51°54' E 004°21'0 0.0
2016-Aug-24 14:32N 51°54' E 004°21'0 0.0
2016-Aug-24 13:29N 51°54' E 004°21'0 0.0
2016-Aug-24 12:32N 51°54' E 004°21'0 0.0
2016-Aug-24 11:23N 51°54' E 004°21'0 0.0
2016-Aug-24 10:32N 51°54' E 004°21'0 0.0
2016-Aug-24 09:20N 51°54' E 004°21'0 0.0
2016-Aug-24 08:32N 51°54' E 004°21'0 0.0
2016-Aug-24 07:29N 51°54' E 004°21'0 0.0
2016-Aug-24 06:32N 51°54' E 004°21'0 0.0
2016-Aug-24 04:32N 51°54' E 004°21'0 0.0
2016-Aug-24 03:29N 51°54' E 004°21'0 0.0
2016-Aug-24 02:32N 51°54' E 004°21'0 0.0
2016-Aug-24 01:26N 51°54' E 004°21'0 0.0
2016-Aug-24 00:20N 51°54' E 004°21'0 0.0
2016-Aug-23 23:32N 51°54' E 004°21'0 0.0
2016-Aug-23 22:14N 51°54' E 004°21'0 0.0
2016-Aug-23 21:32N 51°54' E 004°21'0 0.0
2016-Aug-23 20:29N 51°54' E 004°21'0 0.0
2016-Aug-23 19:29N 51°54' E 004°21'0 0.0
2016-Aug-23 18:32N 51°54' E 004°21'0 0.0
2016-Aug-23 17:32N 51°54' E 004°21'0 0.0
2016-Aug-23 16:33N 51°54' E 004°21'7 6.7
2016-Aug-23 15:33N 51°57' E 004°11'9 9.0
2016-Aug-23 14:33N 52°00' E 003°58'9 8.7
2016-Aug-23 13:33N 52°02' E 003°44'9 9.0
2016-Aug-23 12:34N 52°07' E 003°32'9 9.4
2016-Aug-23 11:33N 52°12' E 003°18'10 9.7
2016-Aug-23 10:33N 52°17' E 003°05'1010.1
2016-Aug-23 09:32N 52°23' E 002°51'46 9.2
2016-Aug-23 04:33N 52°49' E 001°49'8 8.0
2016-Aug-23 03:33N 52°53' E 001°38'8 8.5
2016-Aug-23 02:33N 52°58' E 001°27'9 9.5
2016-Aug-23 01:33N 53°03' E 001°13'1110.6
2016-Aug-23 00:33N 53°07' E 000°57'1110.6
2016-Aug-22 23:33N 53°14' E 000°44'9 9.3
2016-Aug-22 22:33N 53°07' E 000°34'1110.5
2016-Aug-22 21:33N 52°59' E 000°22'9 9.4
2016-Aug-22 20:33N 52°51' E 000°14'5 3.9
2016-Aug-22 19:19N 52°47' E 000°12'0 0.0
2016-Aug-22 18:28N 52°47' E 000°12'0 0.0
2016-Aug-22 17:31N 52°47' E 000°12'0 0.0
2016-Aug-22 16:28N 52°47' E 000°12'0 0.0
2016-Aug-22 15:28N 52°47' E 000°12'0 0.0
2016-Aug-22 14:31N 52°47' E 000°12'0 0.0
2016-Aug-22 13:31N 52°47' E 000°12'0 0.0
2016-Aug-22 12:25N 52°47' E 000°12'0 0.0
2016-Aug-22 11:28N 52°47' E 000°12'0 0.0
2016-Aug-22 10:31N 52°47' E 000°12'0 0.0
2016-Aug-22 09:31N 52°47' E 000°12'0 0.0
2016-Aug-22 08:31N 52°47' E 000°12'0 0.0
2016-Aug-22 07:31N 52°47' E 000°12'0 0.0
2016-Aug-22 06:28N 52°47' E 000°12'0 0.0
2016-Aug-22 05:31N 52°47' E 000°12'0 0.0
2016-Aug-22 04:31N 52°47' E 000°12'0 0.0
2016-Aug-22 03:31N 52°47' E 000°12'0 0.0
2016-Aug-22 02:25N 52°47' E 000°12'0 0.0
2016-Aug-22 01:25N 52°47' E 000°12'0 0.0
2016-Aug-22 00:28N 52°47' E 000°12'0 0.0
2016-Aug-21 23:28N 52°47' E 000°12'0 0.0
2016-Aug-21 22:22N 52°47' E 000°12'0 0.0
2016-Aug-21 21:25N 52°47' E 000°12'0 0.0
2016-Aug-21 20:28N 52°47' E 000°12'0 0.0
2016-Aug-21 19:28N 52°47' E 000°12'0 0.0
2016-Aug-21 18:31N 52°47' E 000°12'0 0.0
2016-Aug-21 17:31N 52°47' E 000°12'0 0.0
2016-Aug-21 16:28N 52°47' E 000°12'0 0.0
2016-Aug-21 15:31N 52°47' E 000°12'0 0.0
2016-Aug-21 14:31N 52°47' E 000°12'0 0.0
2016-Aug-21 13:31N 52°47' E 000°12'0 0.0
2016-Aug-21 12:31N 52°47' E 000°12'0 0.0
2016-Aug-21 11:31N 52°47' E 000°12'0 0.0
2016-Aug-21 10:25N 52°47' E 000°12'0 0.0
2016-Aug-21 09:31N 52°47' E 000°12'0 0.0
2016-Aug-21 08:31N 52°47' E 000°12'0 0.0
2016-Aug-21 07:31N 52°47' E 000°12'0 0.0
2016-Aug-21 06:25N 52°47' E 000°12'0 0.0
2016-Aug-21 05:31N 52°47' E 000°12'0 0.0
2016-Aug-21 04:31N 52°47' E 000°12'0 0.0
2016-Aug-21 03:31N 52°47' E 000°12'0 0.0
2016-Aug-21 02:28N 52°47' E 000°12'0 0.0
2016-Aug-21 01:31N 52°47' E 000°12'0 0.0
2016-Aug-21 00:28N 52°47' E 000°12'0 0.0
2016-Aug-20 23:19N 52°47' E 000°12'0 0.0
2016-Aug-20 22:25N 52°47' E 000°12'0 0.0
2016-Aug-20 21:28N 52°47' E 000°12'0 0.0
2016-Aug-20 20:31N 52°47' E 000°12'0 0.0
2016-Aug-20 19:31N 52°47' E 000°12'0 0.0
2016-Aug-20 18:19N 52°47' E 000°12'0 0.0
2016-Aug-20 17:28N 52°47' E 000°12'0 0.0
2016-Aug-20 16:31N 52°47' E 000°12'0 0.0
2016-Aug-20 15:16N 52°47' E 000°12'0 0.0
2016-Aug-20 14:31N 52°47' E 000°12'0 0.0
2016-Aug-20 13:31N 52°47' E 000°12'0 0.0
2016-Aug-20 12:31N 52°47' E 000°12'0 0.0
2016-Aug-20 11:31N 52°47' E 000°12'0 0.0
2016-Aug-20 10:28N 52°47' E 000°12'0 0.0
2016-Aug-20 09:31N 52°47' E 000°12'0 0.0
2016-Aug-20 08:31N 52°47' E 000°12'0 0.0
2016-Aug-20 07:31N 52°47' E 000°12'0 0.0
2016-Aug-20 06:31N 52°47' E 000°12'0 0.0
2016-Aug-20 05:31N 52°47' E 000°12'0 0.0
2016-Aug-20 04:28N 52°47' E 000°12'0 0.0
2016-Aug-20 03:31N 52°47' E 000°12'0 0.0
2016-Aug-20 02:31N 52°47' E 000°12'0 0.0
2016-Aug-20 01:28N 52°47' E 000°12'0 0.0
2016-Aug-20 00:31N 52°47' E 000°12'0 0.0
2016-Aug-19 23:25N 52°47' E 000°12'0 0.0
2016-Aug-19 22:31N 52°47' E 000°12'0 0.0
2016-Aug-19 21:28N 52°47' E 000°12'0 0.0
2016-Aug-19 20:31N 52°47' E 000°12'0 0.0
2016-Aug-19 19:31N 52°47' E 000°12'0 0.0
2016-Aug-19 18:31N 52°47' E 000°12'0 0.0
2016-Aug-19 17:19N 52°47' E 000°12'0 0.0
2016-Aug-19 16:31N 52°47' E 000°12'0 0.0
2016-Aug-19 15:31N 52°47' E 000°12'0 0.0
2016-Aug-19 14:31N 52°47' E 000°12'0 0.0
2016-Aug-19 13:28N 52°47' E 000°12'0 0.0
2016-Aug-19 12:31N 52°47' E 000°12'0 0.0
2016-Aug-19 11:31N 52°47' E 000°12'0 0.0
2016-Aug-19 10:31N 52°47' E 000°12'0 0.0
2016-Aug-19 09:22N 52°47' E 000°12'0 0.0
2016-Aug-19 08:31N 52°47' E 000°12'0 0.0
2016-Aug-19 07:28N 52°47' E 000°12'0 0.0
2016-Aug-19 06:25N 52°47' E 000°12'0 0.0
2016-Aug-19 05:31N 52°47' E 000°12'0 0.0
2016-Aug-19 04:31N 52°47' E 000°12'  
Track history (hours):
 
Tides and Currents Weather Stations Pressure Air Temp Water Temp Dewpoint Dewpoint Depression Visibility Wind Speed Wind Dir Waves Ship Positions

Wilson Gdynia

Last reported at 2016-Aug-29 03:32 UTC. Time now 2016-Aug-29 03:44 UTC.
Position N 51°17' E 004°21'.

Length 88 m; draft 5.7 m.

Type: Cargo ship. MMSI: 314192000.

Date/timePositionNaut miles runAvg speedWind from/ knotsBaromVisibWave heightAir tempDewpointWater temp
2016-Aug-29 03:32N 51°17' E 004°21'0 0.0
2016-Aug-29 02:32N 51°16' E 004°21'0 0.0
2016-Aug-29 01:29N 51°16' E 004°21'0 0.0
2016-Aug-29 00:32N 51°16' E 004°21'0 0.0
2016-Aug-28 23:32N 51°17' E 004°21'0 0.0
2016-Aug-28 22:32N 51°17' E 004°21'0 0.0
2016-Aug-28 21:32N 51°17' E 004°21'0 0.0
2016-Aug-28 20:32N 51°16' E 004°21'0 0.0
2016-Aug-28 19:32N 51°17' E 004°21'0 0.0
2016-Aug-28 18:29N 51°17' E 004°21'0 0.0
2016-Aug-28 17:32N 51°17' E 004°21'0 0.0
2016-Aug-28 16:29N 51°16' E 004°21'0 0.0
2016-Aug-28 15:32N 51°17' E 004°21'0 0.0
2016-Aug-28 14:26N 51°17' E 004°21'0 0.0
2016-Aug-28 13:32N 51°16' E 004°21'0 0.0
2016-Aug-28 12:32N 51°16' E 004°21'0 0.0
2016-Aug-28 11:23N 51°16' E 004°21'0 0.0
2016-Aug-28 10:32N 51°16' E 004°21'0 0.0
2016-Aug-28 09:32N 51°16' E 004°21'0 0.0
2016-Aug-28 08:32N 51°16' E 004°21'0 0.0
2016-Aug-28 07:32N 51°17' E 004°21'0 0.0
2016-Aug-28 06:32N 51°16' E 004°21'0 0.0
2016-Aug-28 05:32N 51°17' E 004°21'0 0.0
2016-Aug-28 04:32N 51°17' E 004°21'0 0.0
2016-Aug-28 03:29N 51°17' E 004°21'0 0.0
2016-Aug-28 02:32N 51°17' E 004°21'0 0.0
2016-Aug-28 01:32N 51°17' E 004°21'0 0.0
2016-Aug-28 00:32N 51°16' E 004°21'0 0.0
2016-Aug-27 23:32N 51°17' E 004°21'0 0.0
2016-Aug-27 22:32N 51°16' E 004°21'5 5.0
2016-Aug-27 21:33N 51°21' E 004°17'0 0.3
2016-Aug-27 20:33N 51°21' E 004°17'5 5.2
2016-Aug-27 19:34N 51°23' E 004°09'8 7.5
2016-Aug-27 18:34N 51°23' E 003°57'10 9.6
2016-Aug-27 17:34N 51°24' E 003°42'1010.5
2016-Aug-27 16:34N 51°24' E 003°25'10 9.6
2016-Aug-27 15:34N 51°23' E 003°10'9 8.7
2016-Aug-27 14:34N 51°22' E 002°56'9 8.6
2016-Aug-27 13:34N 51°22' E 002°42'6 6.4
2016-Aug-27 12:34N 51°22' E 002°32'7 7.3
2016-Aug-27 11:33N 51°19' E 002°21'8 8.4
2016-Aug-27 10:34N 51°15' E 002°10'9 8.8
2016-Aug-27 09:33N 51°10' E 001°58'10 9.6
2016-Aug-27 08:34N 51°05' E 001°45'1211.8
2016-Aug-27 07:33N 50°56' E 001°32'1211.8
2016-Aug-27 06:32N 50°45' E 001°24'3210.6
2016-Aug-27 03:32N 50°22' E 000°49'1110.9
2016-Aug-27 02:33N 50°13' E 000°40'1110.6
2016-Aug-27 01:34N 50°05' E 000°29'1010.1
2016-Aug-27 00:34N 49°58' E 000°19'10 9.6
2016-Aug-26 23:34N 49°50' E 000°09'9 9.1
2016-Aug-26 22:34N 49°43' E 000°02'9 9.2
2016-Aug-26 21:33N 49°34' W 000°04'8 7.7
2016-Aug-26 20:33N 49°27' E 000°01'1111.3
2016-Aug-26 19:34N 49°26' E 000°18'9 9.4
2016-Aug-26 18:34N 49°28' E 000°33'9 6.0
2016-Aug-26 17:06N 49°31' E 000°45'4 7.1
2016-Aug-26 16:31N 49°28' E 000°49'5 0.4
2016-Aug-26 03:33N 49°28' E 000°56'5 4.1
2016-Aug-26 02:27N 49°27' E 000°49'6 6.7
2016-Aug-26 01:34N 49°28' E 000°40'8 8.4
2016-Aug-26 00:34N 49°28' E 000°27'1211.7
2016-Aug-25 23:34N 49°26' E 000°09'10 9.6
2016-Aug-25 22:34N 49°28' W 000°05'0 0.0
2016-Aug-25 21:32N 49°28' W 000°05'0 0.0
2016-Aug-25 20:32N 49°28' W 000°05'0 0.0
2016-Aug-25 19:32N 49°28' W 000°05'0 0.0
2016-Aug-25 18:32N 49°28' W 000°05'0 0.0
2016-Aug-25 17:32N 49°28' W 000°05'7 6.9
2016-Aug-25 16:33N 49°35' W 000°06'1010.2
2016-Aug-25 15:33N 49°45' W 000°02'10 9.7
2016-Aug-25 14:33N 49°54' W 000°01'10 9.6
2016-Aug-25 13:33N 50°04' W 000°01'1010.0
2016-Aug-25 12:33N 50°14' W 000°03'1111.1
2016-Aug-25 11:34N 50°25' W 000°02'10 9.9
2016-Aug-25 10:33N 50°30' E 000°12'1312.8
2016-Aug-25 09:30N 50°33' E 000°32'1312.8
2016-Aug-25 08:29N 50°40' E 000°50'1212.3
2016-Aug-25 07:29N 50°47' E 001°06'1011.2
2016-Aug-25 06:33N 50°54' E 001°18'19 9.4
2016-Aug-25 04:33N 51°08' E 001°38'9 9.5
2016-Aug-25 03:34N 51°15' E 001°48'1111.3
2016-Aug-25 02:34N 51°25' E 001°57'1313.0
2016-Aug-25 01:33N 51°34' E 002°11'1313.5
2016-Aug-25 00:34N 51°44' E 002°26'1413.3
2016-Aug-24 23:29N 51°55' E 002°41'1111.8
2016-Aug-24 22:32N 52°02' E 002°56'1211.7
2016-Aug-24 21:32N 52°02' E 003°15'1211.5
2016-Aug-24 20:30N 52°03' E 003°34'1011.0
2016-Aug-24 19:33N 52°03' E 003°51'10 9.5
2016-Aug-24 18:33N 51°59' E 004°05'10 9.6
2016-Aug-24 17:33N 51°54' E 004°18'2 2.0
2016-Aug-24 16:32N 51°54' E 004°21'0 0.0
2016-Aug-24 15:32N 51°54' E 004°21'0 0.0
2016-Aug-24 14:32N 51°54' E 004°21'0 0.0
2016-Aug-24 13:29N 51°54' E 004°21'0 0.0
2016-Aug-24 12:32N 51°54' E 004°21'0 0.0
2016-Aug-24 11:23N 51°54' E 004°21'0 0.0
2016-Aug-24 10:32N 51°54' E 004°21'0 0.0
2016-Aug-24 09:20N 51°54' E 004°21'0 0.0
2016-Aug-24 08:32N 51°54' E 004°21'0 0.0
2016-Aug-24 07:29N 51°54' E 004°21'0 0.0
2016-Aug-24 06:32N 51°54' E 004°21'0 0.0
2016-Aug-24 04:32N 51°54' E 004°21'0 0.0
2016-Aug-24 03:29N 51°54' E 004°21'0 0.0
2016-Aug-24 02:32N 51°54' E 004°21'0 0.0
2016-Aug-24 01:26N 51°54' E 004°21'0 0.0
2016-Aug-24 00:20N 51°54' E 004°21'0 0.0
2016-Aug-23 23:32N 51°54' E 004°21'0 0.0
2016-Aug-23 22:14N 51°54' E 004°21'0 0.0
2016-Aug-23 21:32N 51°54' E 004°21'0 0.0
2016-Aug-23 20:29N 51°54' E 004°21'0 0.0
2016-Aug-23 19:29N 51°54' E 004°21'0 0.0
2016-Aug-23 18:32N 51°54' E 004°21'0 0.0
2016-Aug-23 17:32N 51°54' E 004°21'0 0.0
2016-Aug-23 16:33N 51°54' E 004°21'7 6.7
2016-Aug-23 15:33N 51°57' E 004°11'9 9.0
2016-Aug-23 14:33N 52°00' E 003°58'9 8.7
2016-Aug-23 13:33N 52°02' E 003°44'9 9.0
2016-Aug-23 12:34N 52°07' E 003°32'9 9.4
2016-Aug-23 11:33N 52°12' E 003°18'10 9.7
2016-Aug-23 10:33N 52°17' E 003°05'1010.1
2016-Aug-23 09:32N 52°23' E 002°51'46 9.2
2016-Aug-23 04:33N 52°49' E 001°49'8 8.0
2016-Aug-23 03:33N 52°53' E 001°38'8 8.5
2016-Aug-23 02:33N 52°58' E 001°27'9 9.5
2016-Aug-23 01:33N 53°03' E 001°13'1110.6
2016-Aug-23 00:33N 53°07' E 000°57'1110.6
2016-Aug-22 23:33N 53°14' E 000°44'9 9.3
2016-Aug-22 22:33N 53°07' E 000°34'1110.5
2016-Aug-22 21:33N 52°59' E 000°22'9 9.4
2016-Aug-22 20:33N 52°51' E 000°14'5 3.9
2016-Aug-22 19:19N 52°47' E 000°12'0 0.0
2016-Aug-22 18:28N 52°47' E 000°12'0 0.0
2016-Aug-22 17:31N 52°47' E 000°12'0 0.0
2016-Aug-22 16:28N 52°47' E 000°12'0 0.0
2016-Aug-22 15:28N 52°47' E 000°12'0 0.0
2016-Aug-22 14:31N 52°47' E 000°12'0 0.0
2016-Aug-22 13:31N 52°47' E 000°12'0 0.0
2016-Aug-22 12:25N 52°47' E 000°12'0 0.0
2016-Aug-22 11:28N 52°47' E 000°12'0 0.0
2016-Aug-22 10:31N 52°47' E 000°12'0 0.0
2016-Aug-22 09:31N 52°47' E 000°12'0 0.0
2016-Aug-22 08:31N 52°47' E 000°12'0 0.0
2016-Aug-22 07:31N 52°47' E 000°12'0 0.0
2016-Aug-22 06:28N 52°47' E 000°12'0 0.0
2016-Aug-22 05:31N 52°47' E 000°12'0 0.0
2016-Aug-22 04:31N 52°47' E 000°12'0 0.0
2016-Aug-22 03:31N 52°47' E 000°12'0 0.0
2016-Aug-22 02:25N 52°47' E 000°12'0 0.0
2016-Aug-22 01:25N 52°47' E 000°12'0 0.0
2016-Aug-22 00:28N 52°47' E 000°12'0 0.0
2016-Aug-21 23:28N 52°47' E 000°12'0 0.0
2016-Aug-21 22:22N 52°47' E 000°12'0 0.0
2016-Aug-21 21:25N 52°47' E 000°12'0 0.0
2016-Aug-21 20:28N 52°47' E 000°12'0 0.0
2016-Aug-21 19:28N 52°47' E 000°12'0 0.0
2016-Aug-21 18:31N 52°47' E 000°12'0 0.0
2016-Aug-21 17:31N 52°47' E 000°12'0 0.0
2016-Aug-21 16:28N 52°47' E 000°12'0 0.0
2016-Aug-21 15:31N 52°47' E 000°12'0 0.0
2016-Aug-21 14:31N 52°47' E 000°12'0 0.0
2016-Aug-21 13:31N 52°47' E 000°12'0 0.0
2016-Aug-21 12:31N 52°47' E 000°12'0 0.0
2016-Aug-21 11:31N 52°47' E 000°12'0 0.0
2016-Aug-21 10:25N 52°47' E 000°12'0 0.0
2016-Aug-21 09:31N 52°47' E 000°12'0 0.0
2016-Aug-21 08:31N 52°47' E 000°12'0 0.0
2016-Aug-21 07:31N 52°47' E 000°12'0 0.0
2016-Aug-21 06:25N 52°47' E 000°12'0 0.0
2016-Aug-21 05:31N 52°47' E 000°12'0 0.0
2016-Aug-21 04:31N 52°47' E 000°12'0 0.0
2016-Aug-21 03:31N 52°47' E 000°12'0 0.0
2016-Aug-21 02:28N 52°47' E 000°12'0 0.0
2016-Aug-21 01:31N 52°47' E 000°12'0 0.0
2016-Aug-21 00:28N 52°47' E 000°12'0 0.0
2016-Aug-20 23:19N 52°47' E 000°12'0 0.0
2016-Aug-20 22:25N 52°47' E 000°12'0 0.0
2016-Aug-20 21:28N 52°47' E 000°12'0 0.0
2016-Aug-20 20:31N 52°47' E 000°12'0 0.0
2016-Aug-20 19:31N 52°47' E 000°12'0 0.0
2016-Aug-20 18:19N 52°47' E 000°12'0 0.0
2016-Aug-20 17:28N 52°47' E 000°12'0 0.0
2016-Aug-20 16:31N 52°47' E 000°12'0 0.0
2016-Aug-20 15:16N 52°47' E 000°12'0 0.0
2016-Aug-20 14:31N 52°47' E 000°12'0 0.0
2016-Aug-20 13:31N 52°47' E 000°12'0 0.0
2016-Aug-20 12:31N 52°47' E 000°12'0 0.0
2016-Aug-20 11:31N 52°47' E 000°12'0 0.0
2016-Aug-20 10:28N 52°47' E 000°12'0 0.0
2016-Aug-20 09:31N 52°47' E 000°12'0 0.0
2016-Aug-20 08:31N 52°47' E 000°12'0 0.0
2016-Aug-20 07:31N 52°47' E 000°12'0 0.0
2016-Aug-20 06:31N 52°47' E 000°12'0 0.0
2016-Aug-20 05:31N 52°47' E 000°12'0 0.0
2016-Aug-20 04:28N 52°47' E 000°12'0 0.0
2016-Aug-20 03:31N 52°47' E 000°12'0 0.0
2016-Aug-20 02:31N 52°47' E 000°12'0 0.0
2016-Aug-20 01:28N 52°47' E 000°12'0 0.0
2016-Aug-20 00:31N 52°47' E 000°12'0 0.0
2016-Aug-19 23:25N 52°47' E 000°12'0 0.0
2016-Aug-19 22:31N 52°47' E 000°12'0 0.0
2016-Aug-19 21:28N 52°47' E 000°12'0 0.0
2016-Aug-19 20:31N 52°47' E 000°12'0 0.0
2016-Aug-19 19:31N 52°47' E 000°12'0 0.0
2016-Aug-19 18:31N 52°47' E 000°12'0 0.0
2016-Aug-19 17:19N 52°47' E 000°12'0 0.0
2016-Aug-19 16:31N 52°47' E 000°12'0 0.0
2016-Aug-19 15:31N 52°47' E 000°12'0 0.0
2016-Aug-19 14:31N 52°47' E 000°12'0 0.0
2016-Aug-19 13:28N 52°47' E 000°12'0 0.0
2016-Aug-19 12:31N 52°47' E 000°12'0 0.0
2016-Aug-19 11:31N 52°47' E 000°12'0 0.0
2016-Aug-19 10:31N 52°47' E 000°12'0 0.0
2016-Aug-19 09:22N 52°47' E 000°12'0 0.0
2016-Aug-19 08:31N 52°47' E 000°12'0 0.0
2016-Aug-19 07:28N 52°47' E 000°12'0 0.0
2016-Aug-19 06:25N 52°47' E 000°12'0 0.0
2016-Aug-19 05:31N 52°47' E 000°12'0 0.0
2016-Aug-19 04:31N 52°47' E 000°12'  

Dump ship's entire track history